createdAt,value
2023-01-21T00:00:45.538Z,57.18
2023-01-21T00:03:13.031Z,57.07
2023-01-21T00:05:39.971Z,57.37
2023-01-21T00:08:06.940Z,56.92
2023-01-21T00:10:34.366Z,57.41
2023-01-21T00:13:01.469Z,57.15
2023-01-21T00:15:28.797Z,57.78
2023-01-21T00:17:55.773Z,57.46
2023-01-21T00:20:22.708Z,58.26
2023-01-21T00:22:49.614Z,57.72
2023-01-21T00:25:16.577Z,58.06
2023-01-21T00:27:43.508Z,58.09
2023-01-21T00:30:11.189Z,58.55
2023-01-21T00:32:38.134Z,57.88
2023-01-21T00:35:06.914Z,57.82
2023-01-21T00:37:33.844Z,57.62
2023-01-21T00:40:01.060Z,57.91
2023-01-21T00:42:28.675Z,57.49
2023-01-21T00:44:57.390Z,57.62
2023-01-21T00:47:24.763Z,57.88
2023-01-21T00:49:51.678Z,57.58
2023-01-21T00:52:18.597Z,58.14
2023-01-21T00:54:45.516Z,57.89
2023-01-21T00:57:13.796Z,58.22
2023-01-21T00:59:40.931Z,57.83
2023-01-21T01:02:08.921Z,58.17
2023-01-21T01:04:36.365Z,58.22
2023-01-21T01:07:03.689Z,58.13
2023-01-21T01:09:30.920Z,58.45
2023-01-21T01:11:57.866Z,58.04
2023-01-21T01:14:24.866Z,58.21
2023-01-21T01:16:51.777Z,58.34
2023-01-21T01:19:18.660Z,57.85
2023-01-21T01:21:46.216Z,57.84
2023-01-21T01:24:13.137Z,58.03
2023-01-21T01:26:42.294Z,57.99
2023-01-21T01:29:13.200Z,58.14
2023-01-21T01:31:40.300Z,58.04
2023-01-21T01:34:07.349Z,58.10
2023-01-21T01:36:34.231Z,57.91
2023-01-21T01:39:01.514Z,57.72
2023-01-21T01:41:30.099Z,57.42
2023-01-21T01:44:06.693Z,58.12
2023-01-21T01:46:36.435Z,57.48
2023-01-21T01:49:13.711Z,57.57
2023-01-21T01:51:47.330Z,58.22
2023-01-21T01:54:19.802Z,57.96
2023-01-21T01:56:50.637Z,57.83
2023-01-21T01:59:18.137Z,57.88
2023-01-21T02:01:45.129Z,57.78
2023-01-21T02:04:20.117Z,58.17
2023-01-21T02:06:49.086Z,58.29
2023-01-21T02:09:16.027Z,58.56
2023-01-21T02:11:42.952Z,58.65
2023-01-21T02:14:09.959Z,58.71
2023-01-21T02:16:57.678Z,58.75
2023-01-21T02:20:11.749Z,59.11
2023-01-21T02:23:01.631Z,59.54
2023-01-21T02:25:48.898Z,59.12
2023-01-21T02:28:52.650Z,59.27
2023-01-21T02:31:58.209Z,59.09
2023-01-21T02:34:51.996Z,59.55
2023-01-21T02:37:47.208Z,59.41
2023-01-21T02:40:42.171Z,59.44
2023-01-21T02:43:18.752Z,60.16
2023-01-21T02:46:18.791Z,59.93
2023-01-21T02:49:00.767Z,60.25
2023-01-21T02:51:27.662Z,60.04
2023-01-21T02:53:54.555Z,59.73
2023-01-21T02:56:27.099Z,60.07
2023-01-21T02:59:02.066Z,59.71
2023-01-21T03:01:40.791Z,60.06
2023-01-21T03:04:37.671Z,60.04
2023-01-21T03:07:14.490Z,59.87
2023-01-21T03:09:41.683Z,59.30
2023-01-21T03:12:56.350Z,59.24
2023-01-21T03:16:07.085Z,59.31
2023-01-21T03:18:43.649Z,59.43
2023-01-21T03:21:18.553Z,60.10
2023-01-21T03:23:49.662Z,60.08
2023-01-21T03:26:22.612Z,60.18
2023-01-21T03:28:54.044Z,60.37
2023-01-21T03:31:33.770Z,60.38
2023-01-21T03:34:04.708Z,61.09
2023-01-21T03:37:02.689Z,60.68
2023-01-21T03:39:37.735Z,60.94
2023-01-21T03:42:04.916Z,61.50
2023-01-21T03:44:32.113Z,61.25
2023-01-21T03:47:28.714Z,61.33
2023-01-21T03:50:20.494Z,61.62
2023-01-21T03:52:47.517Z,61.52
2023-01-21T03:55:16.964Z,61.68
2023-01-21T03:57:43.892Z,61.75
2023-01-21T04:00:11.639Z,61.69
2023-01-21T04:02:39.186Z,62.29
2023-01-21T04:05:06.466Z,62.96
2023-01-21T04:07:33.360Z,62.94
2023-01-21T04:10:00.275Z,62.94
2023-01-21T04:12:27.166Z,62.94
2023-01-21T04:14:54.083Z,63.06
2023-01-21T04:17:20.999Z,63.08
2023-01-21T04:19:47.910Z,63.36
2023-01-21T04:22:14.863Z,63.33
2023-01-21T04:24:41.770Z,63.25
2023-01-21T04:27:08.694Z,62.94
2023-01-21T04:29:35.560Z,63.01
2023-01-21T04:32:02.563Z,62.49
2023-01-21T04:34:29.461Z,61.84
2023-01-21T04:36:56.322Z,61.99
2023-01-21T04:39:23.179Z,62.42
2023-01-21T04:41:50.066Z,62.43
2023-01-21T04:44:16.934Z,62.64
2023-01-21T04:46:43.835Z,62.84
2023-01-21T04:49:10.736Z,62.87
2023-01-21T04:51:37.620Z,63.07
2023-01-21T04:54:04.581Z,62.79
2023-01-21T04:56:31.479Z,62.82
2023-01-21T04:58:58.377Z,62.25
2023-01-21T05:01:25.310Z,62.45
2023-01-21T05:03:52.278Z,62.37
2023-01-21T05:06:19.192Z,62.27
2023-01-21T05:08:46.092Z,62.61
2023-01-21T05:11:18.193Z,62.89
2023-01-21T05:13:45.156Z,63.03
2023-01-21T05:16:12.032Z,62.98
2023-01-21T05:18:39.113Z,62.79
2023-01-21T05:21:06.844Z,62.69
2023-01-21T05:23:34.068Z,62.72
2023-01-21T05:26:00.948Z,62.89
2023-01-21T05:28:27.856Z,63.00
2023-01-21T05:30:54.942Z,63.04
2023-01-21T05:33:26.212Z,62.69
2023-01-21T05:35:53.226Z,62.66
2023-01-21T05:38:20.176Z,63.23
2023-01-21T05:40:47.092Z,63.31
2023-01-21T05:43:14.017Z,63.33
2023-01-21T05:45:40.895Z,63.37
2023-01-21T05:48:07.776Z,63.32
2023-01-21T05:50:34.670Z,63.43
2023-01-21T05:53:01.584Z,63.14
2023-01-21T05:55:28.471Z,62.83
2023-01-21T05:57:55.406Z,63.35
2023-01-21T06:00:22.482Z,63.09
2023-01-21T06:02:49.385Z,63.15
2023-01-21T06:05:16.434Z,63.36
2023-01-21T06:07:43.342Z,63.64
2023-01-21T06:10:10.843Z,63.75
2023-01-21T06:12:37.747Z,64.13
2023-01-21T06:15:05.088Z,64.51
2023-01-21T06:17:32.000Z,64.52
2023-01-21T06:19:58.897Z,64.38
2023-01-21T06:22:25.804Z,64.81
2023-01-21T06:24:52.696Z,64.13
2023-01-21T06:27:19.599Z,64.15
2023-01-21T06:29:46.472Z,64.15
2023-01-21T06:32:13.381Z,63.80
2023-01-21T06:34:40.319Z,63.76
2023-01-21T06:37:07.359Z,63.76
2023-01-21T06:39:34.278Z,63.93
2023-01-21T06:42:01.266Z,64.57
2023-01-21T06:44:28.239Z,64.50
2023-01-21T06:47:02.366Z,63.99
2023-01-21T06:49:29.420Z,64.45
2023-01-21T06:51:56.457Z,64.42
2023-01-21T06:54:23.376Z,64.17
2023-01-21T06:56:50.330Z,64.08
2023-01-21T06:59:17.186Z,64.71
2023-01-21T07:01:44.289Z,64.73
2023-01-21T07:04:11.229Z,64.28
2023-01-21T07:06:38.336Z,64.25
2023-01-21T07:09:06.704Z,64.69
2023-01-21T07:11:34.443Z,65.05
2023-01-21T07:14:01.344Z,65.22
2023-01-21T07:16:28.330Z,65.30
2023-01-21T07:18:55.275Z,64.95
2023-01-21T07:21:24.450Z,64.65
2023-01-21T07:23:53.297Z,64.61
2023-01-21T07:26:20.447Z,64.98
2023-01-21T07:28:47.541Z,63.98
2023-01-21T07:31:14.609Z,64.13
2023-01-21T07:33:41.565Z,63.52
2023-01-21T07:36:08.806Z,63.37
2023-01-21T07:38:35.755Z,63.26
2023-01-21T07:41:02.647Z,63.56
2023-01-21T07:43:29.621Z,63.47
2023-01-21T07:45:58.581Z,63.16
2023-01-21T07:48:26.885Z,63.44
2023-01-21T07:50:58.505Z,63.51
2023-01-21T07:53:26.285Z,62.82
2023-01-21T07:55:53.453Z,62.35
2023-01-21T07:58:20.385Z,62.87
2023-01-21T08:00:47.260Z,62.97
2023-01-21T08:03:14.180Z,63.04
2023-01-21T08:05:41.063Z,63.41
2023-01-21T08:08:07.968Z,63.64
2023-01-21T08:10:34.854Z,63.77
2023-01-21T08:13:02.093Z,63.15
2023-01-21T08:15:29.040Z,63.41
2023-01-21T08:17:56.781Z,64.05
2023-01-21T08:20:23.920Z,63.66
2023-01-21T08:22:51.179Z,63.85
2023-01-21T08:25:18.569Z,63.89
2023-01-21T08:27:45.550Z,63.83
2023-01-21T08:30:12.864Z,63.69
2023-01-21T08:32:39.767Z,63.60
2023-01-21T08:35:07.557Z,63.59
2023-01-21T08:37:34.531Z,64.05
2023-01-21T08:40:01.518Z,64.20
2023-01-21T08:42:28.998Z,64.08
2023-01-21T08:44:55.865Z,64.58
2023-01-21T08:47:22.827Z,64.14
2023-01-21T08:49:49.873Z,63.61
2023-01-21T08:52:21.519Z,64.01
2023-01-21T08:54:50.595Z,63.58
2023-01-21T08:57:17.705Z,64.09
2023-01-21T08:59:44.626Z,64.13
2023-01-21T09:02:12.180Z,64.19
2023-01-21T09:04:39.117Z,64.40
2023-01-21T09:07:06.615Z,63.90
2023-01-21T09:09:33.602Z,63.91
2023-01-21T09:12:00.544Z,64.50
2023-01-21T09:14:27.789Z,63.69
2023-01-21T09:16:55.896Z,63.73
2023-01-21T09:19:23.959Z,64.22
2023-01-21T09:21:52.518Z,64.52
2023-01-21T09:24:19.422Z,64.46
2023-01-21T09:26:46.317Z,64.75
2023-01-21T09:29:13.402Z,64.25
2023-01-21T09:31:40.423Z,64.25
2023-01-21T09:34:08.140Z,64.54
2023-01-21T09:36:35.698Z,64.52
2023-01-21T09:39:02.885Z,64.96
2023-01-21T09:41:42.695Z,64.70
2023-01-21T09:44:43.745Z,64.94
2023-01-21T09:47:38.932Z,64.83
2023-01-21T09:50:22.546Z,65.36
2023-01-21T09:52:52.221Z,65.03
2023-01-21T09:55:42.168Z,65.70
2023-01-21T09:58:40.144Z,65.22
2023-01-21T10:01:26.687Z,65.38
2023-01-21T10:04:14.081Z,65.59
2023-01-21T10:06:48.996Z,65.53
2023-01-21T10:09:35.232Z,65.60
2023-01-21T10:12:14.882Z,65.43
2023-01-21T10:15:27.661Z,65.74
2023-01-21T10:18:02.128Z,65.49
2023-01-21T10:20:34.151Z,65.65
2023-01-21T10:23:04.994Z,65.43
2023-01-21T10:25:34.060Z,65.28
2023-01-21T10:28:28.368Z,65.64
2023-01-21T10:31:26.551Z,65.10
2023-01-21T10:33:53.937Z,65.19
2023-01-21T10:37:04.590Z,64.99
2023-01-21T10:39:47.369Z,65.03
2023-01-21T10:42:26.623Z,64.85
2023-01-21T10:45:13.610Z,64.49
2023-01-21T10:47:56.785Z,64.71
2023-01-21T10:50:45.820Z,64.38
2023-01-21T10:54:01.778Z,64.31
2023-01-21T10:56:55.815Z,64.08
2023-01-21T10:59:27.595Z,63.80
2023-01-21T11:02:09.916Z,63.56
2023-01-21T11:04:40.007Z,63.86
2023-01-21T11:07:14.262Z,63.41
2023-01-21T11:09:46.539Z,63.61
2023-01-21T11:12:17.980Z,63.36
2023-01-21T11:14:59.285Z,63.58
2023-01-21T11:17:41.755Z,63.66
2023-01-21T11:20:39.192Z,63.61
2023-01-21T11:23:07.399Z,63.65
2023-01-21T11:25:41.050Z,63.33
2023-01-21T11:28:26.493Z,63.00
2023-01-21T11:31:12.030Z,63.19
2023-01-21T11:33:40.711Z,63.05
2023-01-21T11:36:20.093Z,62.36
2023-01-21T11:39:00.590Z,62.53
2023-01-21T11:41:28.417Z,62.26
2023-01-21T11:44:18.693Z,62.28
2023-01-21T11:46:45.748Z,62.07
2023-01-21T11:49:15.579Z,61.95
2023-01-21T11:51:45.156Z,61.99
2023-01-21T11:54:23.774Z,61.43
2023-01-21T11:57:02.773Z,61.60
2023-01-21T11:59:36.255Z,60.83
2023-01-21T12:02:10.892Z,60.53
2023-01-21T12:04:43.468Z,60.77
2023-01-21T12:07:20.576Z,60.19
2023-01-21T12:10:13.266Z,59.91
2023-01-21T12:13:20.313Z,59.55
2023-01-21T12:16:18.344Z,58.68
2023-01-21T12:19:07.619Z,58.45
2023-01-21T12:22:03.525Z,58.63
2023-01-21T12:24:59.169Z,57.44
2023-01-21T12:27:45.421Z,57.57
2023-01-21T12:30:53.379Z,57.33
2023-01-21T12:33:29.824Z,56.40
2023-01-21T12:36:04.370Z,56.49
2023-01-21T12:38:41.041Z,56.33
2023-01-21T12:41:18.849Z,55.80
2023-01-21T12:43:55.185Z,55.08
2023-01-21T12:46:28.128Z,55.05
2023-01-21T12:49:12.508Z,55.33
2023-01-21T12:51:44.293Z,55.28
2023-01-21T12:54:29.396Z,55.51
2023-01-21T12:57:25.800Z,55.67
2023-01-21T13:00:12.999Z,55.30
2023-01-21T13:03:32.493Z,55.42
2023-01-21T13:06:15.599Z,55.10
2023-01-21T13:09:03.610Z,55.43
2023-01-21T13:11:37.299Z,55.57
2023-01-21T13:14:10.234Z,55.27
2023-01-21T13:16:48.314Z,55.03
2023-01-21T13:19:16.031Z,55.16
2023-01-21T13:22:03.110Z,55.29
2023-01-21T13:25:00.731Z,55.39
2023-01-21T13:27:49.444Z,55.81
2023-01-21T13:30:29.254Z,55.61
2023-01-21T13:33:20.828Z,55.80
2023-01-21T13:36:12.800Z,55.69
2023-01-21T13:38:55.336Z,56.02
2023-01-21T13:41:58.873Z,55.90
2023-01-21T13:44:44.185Z,55.96
2023-01-21T13:47:29.842Z,55.78
2023-01-21T13:50:24.702Z,55.74
2023-01-21T13:53:22.396Z,55.65
2023-01-21T13:56:22.481Z,55.64
2023-01-21T13:59:08.174Z,55.64
2023-01-21T14:01:54.401Z,55.80
2023-01-21T14:04:51.626Z,55.83
2023-01-21T14:07:35.127Z,55.19
2023-01-21T14:10:25.651Z,55.41
2023-01-21T14:13:42.749Z,55.41
2023-01-21T14:16:52.872Z,55.58
2023-01-21T14:19:48.993Z,55.44
2023-01-21T14:22:50.739Z,55.16
2023-01-21T14:25:41.644Z,55.52
2023-01-21T14:28:50.044Z,55.41
2023-01-21T14:31:39.282Z,55.57
2023-01-21T14:34:23.524Z,55.23
2023-01-21T14:37:08.794Z,55.38
2023-01-21T14:40:39.009Z,55.63
2023-01-21T14:43:05.935Z,55.50
2023-01-21T14:45:56.497Z,55.47
2023-01-21T14:48:34.412Z,55.39
2023-01-21T14:51:13.089Z,55.34
2023-01-21T14:54:02.270Z,55.22
2023-01-21T14:56:34.474Z,54.86
2023-01-21T14:59:35.119Z,55.16
2023-01-21T15:02:31.636Z,55.31
2023-01-21T15:05:03.526Z,55.16
2023-01-21T15:07:38.165Z,55.34
2023-01-21T15:10:26.777Z,55.52
2023-01-21T15:13:02.656Z,55.89
2023-01-21T15:15:41.698Z,55.66
2023-01-21T15:18:35.500Z,55.62
2023-01-21T15:21:43.228Z,55.72
2023-01-21T15:24:28.181Z,55.43
2023-01-21T15:27:28.388Z,55.60
2023-01-21T15:29:55.187Z,55.69
2023-01-21T15:32:45.015Z,55.44
2023-01-21T15:35:23.761Z,55.75
2023-01-21T15:38:07.987Z,55.77
2023-01-21T15:41:01.927Z,56.05
2023-01-21T15:43:45.458Z,56.00
2023-01-21T15:46:38.723Z,55.84
2023-01-21T15:49:26.011Z,55.60
2023-01-21T15:52:21.297Z,55.71
2023-01-21T15:55:36.152Z,55.82
2023-01-21T15:58:36.315Z,56.19
2023-01-21T16:01:17.295Z,56.07
2023-01-21T16:04:14.992Z,55.88
2023-01-21T16:07:28.973Z,55.93
2023-01-21T16:10:20.314Z,55.93
2023-01-21T16:13:13.372Z,55.89
2023-01-21T16:16:10.271Z,55.81
2023-01-21T16:19:10.881Z,56.15
2023-01-21T16:21:41.508Z,56.27
2023-01-21T16:24:17.688Z,55.83
2023-01-21T16:26:44.943Z,56.17
2023-01-21T16:29:13.879Z,56.09
2023-01-21T16:31:50.773Z,55.93
2023-01-21T16:34:44.153Z,56.38
2023-01-21T16:37:15.101Z,56.51
2023-01-21T16:39:42.894Z,56.60
2023-01-21T16:42:36.826Z,56.49
2023-01-21T16:45:20.335Z,56.58
2023-01-21T16:47:56.944Z,56.42
2023-01-21T16:50:27.210Z,56.82
2023-01-21T16:52:56.567Z,56.79
2023-01-21T16:55:27.731Z,56.61
2023-01-21T16:57:59.739Z,56.66
2023-01-21T17:00:30.923Z,56.70
2023-01-21T17:02:59.311Z,56.91
2023-01-21T17:05:31.462Z,56.79
2023-01-21T17:08:03.582Z,56.88
2023-01-21T17:10:56.503Z,57.10
2023-01-21T17:13:23.626Z,57.04
2023-01-21T17:16:00.805Z,57.12
2023-01-21T17:18:35.348Z,57.14
2023-01-21T17:21:16.207Z,57.43
2023-01-21T17:23:42.976Z,57.34
2023-01-21T17:26:31.728Z,57.80
2023-01-21T17:29:09.983Z,57.82
2023-01-21T17:31:41.314Z,57.76
2023-01-21T17:34:10.963Z,57.78
2023-01-21T17:36:39.716Z,57.86
2023-01-21T17:39:09.138Z,57.90
2023-01-21T17:41:41.007Z,57.99
2023-01-21T17:44:29.033Z,57.87
2023-01-21T17:46:55.999Z,57.84
2023-01-21T17:49:25.038Z,58.05
2023-01-21T17:51:54.587Z,58.03
2023-01-21T17:54:25.920Z,58.18
2023-01-21T17:56:57.956Z,58.09
2023-01-21T17:59:37.887Z,57.97
2023-01-21T18:02:17.504Z,58.10
2023-01-21T18:04:45.013Z,58.33
2023-01-21T18:07:27.473Z,58.43
2023-01-21T18:09:55.336Z,58.56
2023-01-21T18:12:22.264Z,58.31
2023-01-21T18:14:49.204Z,58.16
2023-01-21T18:17:22.627Z,58.00
2023-01-21T18:19:49.640Z,58.42
2023-01-21T18:22:29.439Z,58.46
2023-01-21T18:24:56.405Z,58.42
2023-01-21T18:27:26.182Z,58.36
2023-01-21T18:29:53.600Z,58.56
2023-01-21T18:32:20.575Z,58.86
2023-01-21T18:34:47.460Z,58.88
2023-01-21T18:37:17.820Z,58.84
2023-01-21T18:39:44.942Z,58.38
2023-01-21T18:42:17.350Z,58.54
2023-01-21T18:44:45.091Z,58.24
2023-01-21T18:47:15.768Z,58.38
2023-01-21T18:49:43.298Z,58.11
2023-01-21T18:52:19.160Z,57.94
2023-01-21T18:54:46.262Z,58.33
2023-01-21T18:57:17.221Z,58.11
2023-01-21T18:59:44.118Z,58.31
2023-01-21T19:02:18.071Z,58.30
2023-01-21T19:04:46.541Z,58.45
2023-01-21T19:07:15.259Z,58.71
2023-01-21T19:09:46.010Z,58.58
2023-01-21T19:12:14.886Z,58.59
2023-01-21T19:14:41.919Z,58.69
2023-01-21T19:17:28.860Z,58.40
2023-01-21T19:19:56.664Z,58.59
2023-01-21T19:22:23.716Z,58.61
2023-01-21T19:24:50.817Z,58.82
2023-01-21T19:27:28.683Z,58.29
2023-01-21T19:29:55.586Z,58.24
2023-01-21T19:32:22.531Z,58.55
2023-01-21T19:34:49.409Z,58.44
2023-01-21T19:37:20.552Z,58.20
2023-01-21T19:39:47.424Z,58.59
2023-01-21T19:42:16.157Z,58.32
2023-01-21T19:44:43.069Z,58.45
2023-01-21T19:47:27.008Z,58.65
2023-01-21T19:49:53.924Z,58.04
2023-01-21T19:52:20.818Z,58.33
2023-01-21T19:54:47.719Z,58.39
2023-01-21T19:57:17.813Z,58.29
2023-01-21T19:59:45.351Z,58.37
2023-01-21T20:02:13.192Z,58.38
2023-01-21T20:04:40.075Z,58.23
2023-01-21T20:07:07.248Z,57.76
2023-01-21T20:09:34.158Z,57.83
2023-01-21T20:12:03.406Z,58.16
2023-01-21T20:14:33.191Z,58.36
2023-01-21T20:17:00.111Z,58.55
2023-01-21T20:19:27.719Z,58.59
2023-01-21T20:22:01.724Z,58.55
2023-01-21T20:24:34.138Z,58.64
2023-01-21T20:27:04.177Z,58.82
2023-01-21T20:29:31.541Z,58.68
2023-01-21T20:31:58.527Z,58.95
2023-01-21T20:34:27.597Z,59.39
2023-01-21T20:36:55.689Z,58.96
2023-01-21T20:39:22.596Z,58.65
2023-01-21T20:41:49.486Z,58.90
2023-01-21T20:44:16.716Z,58.68
2023-01-21T20:46:45.452Z,58.84
2023-01-21T20:49:12.485Z,58.54
2023-01-21T20:51:39.410Z,58.64
2023-01-21T20:54:06.309Z,58.50
2023-01-21T20:56:33.320Z,58.59
2023-01-21T20:59:00.257Z,58.71
2023-01-21T21:01:28.588Z,58.92
2023-01-21T21:03:55.492Z,58.71
2023-01-21T21:06:26.616Z,59.19
2023-01-21T21:08:53.724Z,59.28
2023-01-21T21:11:20.714Z,59.88
2023-01-21T21:13:51.605Z,59.49
2023-01-21T21:16:22.835Z,59.57
2023-01-21T21:18:50.287Z,59.33
2023-01-21T21:21:23.371Z,59.62
2023-01-21T21:23:51.571Z,59.44
2023-01-21T21:26:29.371Z,59.46
2023-01-21T21:28:57.599Z,59.21
2023-01-21T21:31:26.218Z,59.66
2023-01-21T21:33:53.293Z,59.37
2023-01-21T21:36:23.339Z,59.98
2023-01-21T21:38:52.201Z,60.03
2023-01-21T21:41:43.565Z,60.39
2023-01-21T21:44:11.319Z,60.37
2023-01-21T21:46:57.590Z,60.32
2023-01-21T21:49:24.760Z,60.73
2023-01-21T21:51:51.809Z,60.54
2023-01-21T21:54:19.027Z,60.39
2023-01-21T21:56:47.029Z,60.55
2023-01-21T21:59:14.562Z,60.38
2023-01-21T22:01:42.819Z,60.59
2023-01-21T22:04:10.074Z,61.22
2023-01-21T22:06:37.068Z,62.00
2023-01-21T22:09:04.415Z,62.20
2023-01-21T22:11:31.570Z,62.66
2023-01-21T22:13:58.959Z,63.06
2023-01-21T22:16:28.795Z,63.89
2023-01-21T22:18:58.071Z,63.68
2023-01-21T22:21:34.017Z,64.38
2023-01-21T22:24:03.516Z,65.09
2023-01-21T22:26:30.725Z,64.97
2023-01-21T22:28:57.732Z,64.81
2023-01-21T22:31:28.171Z,65.79
2023-01-21T22:33:56.311Z,65.61
2023-01-21T22:36:27.666Z,66.04
2023-01-21T22:38:55.146Z,66.28
2023-01-21T22:41:24.017Z,66.06
2023-01-21T22:43:51.778Z,66.29
2023-01-21T22:46:25.507Z,66.32
2023-01-21T22:48:53.987Z,66.33
2023-01-21T22:51:23.027Z,66.12
2023-01-21T22:53:51.384Z,65.92
2023-01-21T22:56:25.336Z,65.90
2023-01-21T22:58:59.302Z,65.55
2023-01-21T23:01:31.075Z,65.74
2023-01-21T23:03:59.870Z,65.59
2023-01-21T23:06:27.110Z,65.74
2023-01-21T23:08:54.380Z,65.41
2023-01-21T23:11:21.542Z,65.35
2023-01-21T23:13:53.245Z,64.93
2023-01-21T23:16:21.189Z,65.01
2023-01-21T23:18:48.654Z,64.60
2023-01-21T23:21:19.558Z,64.91
2023-01-21T23:23:46.524Z,64.72
2023-01-21T23:26:14.456Z,64.32
2023-01-21T23:28:41.399Z,64.44
2023-01-21T23:31:14.726Z,64.74
2023-01-21T23:33:42.266Z,64.77
2023-01-21T23:36:12.875Z,65.27
2023-01-21T23:38:41.272Z,65.66
2023-01-21T23:41:13.799Z,66.09
2023-01-21T23:43:41.009Z,65.89
2023-01-21T23:46:13.196Z,66.36
2023-01-21T23:48:40.220Z,66.04
2023-01-21T23:51:12.288Z,66.39
2023-01-21T23:53:39.205Z,66.62
2023-01-21T23:56:10.471Z,66.42
2023-01-21T23:58:37.343Z,66.49
